Time;durP1;ratioP1;P1;durP2;ratioP2;P2;SDS_P1;SDS_P2;PMS_P1;PMS_P2;Temp;Humidity;BMP_temperature;BMP_pressure;BME280_temperature;BME280_humidity;BME280_pressure;Samples;Min_cycle;Max_cycle;Signal;HPM_P1;HPM_P2
2023/01/03 00:00:10;;;;;;;;;8.25;7.00;;;;;-146.50;100.00;59256.41;5076813;28;45323;-75
2023/01/03 00:02:36;;;;;;;;;8.00;8.00;;;;;-146.50;100.00;59256.41;5077820;27;47139;-76
2023/01/03 00:05:01;;;;;;;;;10.50;10.00;;;;;-146.50;100.00;59256.41;5074885;27;46082;-76
2023/01/03 00:07:33;;;;;;;;;9.75;9.75;;;;;-146.50;100.00;59256.41;5086551;27;45386;-74
2023/01/03 00:10:05;;;;;;;;;13.00;9.00;;;;;-146.50;100.00;59256.41;5079813;27;45414;-75
2023/01/03 00:12:31;;;;;;;;;6.25;5.00;;;;;-146.50;100.00;59256.41;5074037;28;46195;-74
2023/01/03 00:14:57;;;;;;;;;4.50;4.50;;;;;-146.50;100.00;59256.41;5076226;27;45411;-75
2023/01/03 00:17:22;;;;;;;;;8.25;7.00;;;;;-146.50;100.00;59256.41;5076365;28;45562;-77
2023/01/03 00:19:48;;;;;;;;;8.50;6.75;;;;;-146.50;100.00;59256.41;5076359;28;45737;-76
2023/01/03 00:22:14;;;;;;;;;9.75;9.75;;;;;-146.50;100.00;59256.41;5076261;28;45933;-75
2023/01/03 00:24:40;;;;;;;;;15.50;13.25;;;;;-146.50;100.00;59256.41;5075639;28;45396;-75
2023/01/03 00:27:06;;;;;;;;;9.50;9.50;;;;;-146.50;100.00;59256.41;5074883;28;45460;-75
2023/01/03 00:29:31;;;;;;;;;6.50;6.50;;;;;-146.50;100.00;59256.41;5076140;27;45380;-76
2023/01/03 00:31:57;;;;;;;;;11.50;8.50;;;;;-146.50;100.00;59256.41;5075407;28;46206;-76
2023/01/03 00:34:22;;;;;;;;;12.50;12.50;;;;;-146.50;100.00;59256.41;5074977;27;45764;-75
2023/01/03 00:36:48;;;;;;;;;10.25;10.25;;;;;-146.50;100.00;59256.41;5074940;28;45410;-75
2023/01/03 00:39:13;;;;;;;;;11.75;11.25;;;;;-146.50;100.00;59256.41;5075693;28;46447;-75
2023/01/03 00:41:39;;;;;;;;;11.00;10.50;;;;;-146.50;100.00;59256.41;5075878;27;46075;-74
2023/01/03 00:44:06;;;;;;;;;9.25;7.50;;;;;-146.50;100.00;59256.41;5075587;28;45518;-74
2023/01/03 00:46:31;;;;;;;;;10.25;9.00;;;;;-146.50;100.00;59256.41;5074984;27;45445;-75
2023/01/03 00:48:56;;;;;;;;;2.50;1.00;;;;;-146.50;100.00;59256.41;5105906;27;45726;-74
2023/01/03 00:51:27;;;;;;;;;12.25;8.25;;;;;-146.50;100.00;59256.41;5075488;28;46101;-75
2023/01/03 00:53:55;;;;;;;;;10.00;8.50;;;;;-146.50;100.00;59256.41;5075666;27;45745;-75
2023/01/03 00:56:24;;;;;;;;;10.25;10.25;;;;;-146.50;100.00;59256.41;5071975;28;45438;-75
2023/01/03 00:58:50;;;;;;;;;8.25;7.25;;;;;-146.50;100.00;59256.41;5075263;27;45476;-75
2023/01/03 01:01:24;;;;;;;;;7.00;6.25;;;;;-146.50;100.00;59256.41;5075217;27;45373;-75
2023/01/03 01:03:53;;;;;;;;;6.50;6.00;;;;;-146.50;100.00;59256.41;5075493;28;45283;-76
2023/01/03 01:06:22;;;;;;;;;7.00;7.00;;;;;-146.50;100.00;59256.41;5071084;28;45776;-76
2023/01/03 01:08:49;;;;;;;;;7.00;5.00;;;;;-146.50;100.00;59256.41;5056417;28;45636;-75
2023/01/03 01:11:14;;;;;;;;;9.75;7.00;;;;;-146.50;100.00;59256.41;5068032;28;45347;-76
2023/01/03 01:13:41;;;;;;;;;6.50;5.25;;;;;-146.50;100.00;59256.41;5076626;27;45403;-75
2023/01/03 01:16:13;;;;;;;;;7.50;7.25;;;;;-146.50;100.00;59256.41;5077046;27;45316;-75
2023/01/03 01:18:41;;;;;;;;;11.75;5.25;;;;;-146.50;100.00;59256.41;5076998;27;45347;-76
2023/01/03 01:21:09;;;;;;;;;7.00;7.00;;;;;-146.50;100.00;59256.41;5076559;28;46083;-76
2023/01/03 01:23:36;;;;;;;;;7.50;5.25;;;;;-146.50;100.00;59256.41;5076588;27;45784;-76
2023/01/03 01:26:03;;;;;;;;;4.25;4.25;;;;;-146.50;100.00;59256.41;5075273;28;45685;-76
2023/01/03 01:28:29;;;;;;;;;6.00;6.00;;;;;-146.50;100.00;59256.41;5075820;28;45284;-76
2023/01/03 01:30:57;;;;;;;;;6.00;5.25;;;;;-146.50;100.00;59256.41;5075368;28;45791;-75
2023/01/03 01:33:22;;;;;;;;;5.75;4.50;;;;;-146.50;100.00;59256.41;5076855;27;45579;-76
2023/01/03 01:35:48;;;;;;;;;5.00;5.00;;;;;-146.50;100.00;59256.41;5075065;28;45800;-76
2023/01/03 01:38:13;;;;;;;;;4.25;3.75;;;;;-146.50;100.00;59256.41;5076533;27;45484;-74
2023/01/03 01:40:39;;;;;;;;;4.50;3.25;;;;;-146.50;100.00;59256.41;5076757;27;45586;-75
2023/01/03 01:46:17;;;;;;;;;4.00;3.00;;;;;-146.50;100.00;59256.41;5076786;28;45468;-75
2023/01/03 01:48:42;;;;;;;;;6.00;4.00;;;;;-146.50;100.00;59256.41;5077100;28;45528;-76
2023/01/03 01:51:10;;;;;;;;;5.50;5.50;;;;;-146.50;100.00;59256.41;5076294;28;45415;-76
2023/01/03 01:53:39;;;;;;;;;10.75;8.50;;;;;-146.50;100.00;59256.41;5077249;28;45495;-76
2023/01/03 01:56:28;;;;;;;;;11.00;6.75;;;;;-146.50;100.00;59256.41;5077189;28;45255;-78
2023/01/03 01:58:54;;;;;;;;;10.25;9.00;;;;;-146.50;100.00;59256.41;5075032;28;45437;-77
2023/01/03 02:01:21;;;;;;;;;10.00;8.00;;;;;-146.50;100.00;59256.41;5076138;27;46325;-76
2023/01/03 02:03:55;;;;;;;;;7.50;7.50;;;;;-146.50;100.00;59256.41;5075925;27;45389;-77
2023/01/03 02:06:22;;;;;;;;;5.75;5.75;;;;;-146.50;100.00;59256.41;5073722;28;45542;-76
2023/01/03 02:08:47;;;;;;;;;7.00;5.25;;;;;-146.50;100.00;59256.41;5075598;27;45415;-77
2023/01/03 02:11:47;;;;;;;;;4.50;3.75;;;;;-146.50;100.00;59256.41;5075078;27;46098;-76
2023/01/03 02:14:40;;;;;;;;;4.50;4.25;;;;;-146.50;100.00;59256.41;5108688;27;45583;-76
2023/01/03 02:17:26;;;;;;;;;3.50;3.00;;;;;-146.50;100.00;59256.41;5076321;28;45350;-77
2023/01/03 02:20:13;;;;;;;;;4.00;4.00;;;;;-146.50;100.00;59256.41;5075375;27;45488;-77
2023/01/03 02:23:24;;;;;;;;;8.75;8.25;;;;;-146.50;100.00;59256.41;5074429;28;45876;-75
2023/01/03 02:26:19;;;;;;;;;5.00;5.00;;;;;-146.50;100.00;59256.41;5012396;28;45365;-76
2023/01/03 02:28:48;;;;;;;;;5.00;4.75;;;;;-146.50;100.00;59256.41;4993307;28;45314;-75
2023/01/03 02:31:43;;;;;;;;;6.00;6.00;;;;;-146.50;100.00;59256.41;4993055;28;45369;-76
2023/01/03 02:34:20;;;;;;;;;5.00;5.00;;;;;-146.50;100.00;59256.41;4992949;28;45499;-76
2023/01/03 02:36:57;;;;;;;;;6.00;6.00;;;;;-146.50;100.00;59256.41;4993354;28;45520;-75
2023/01/03 02:39:22;;;;;;;;;6.00;6.00;;;;;-146.50;100.00;59256.41;5006397;28;45506;-76
2023/01/03 02:42:56;;;;;;;;;4.75;3.50;;;;;-146.50;100.00;59256.41;4995564;28;45555;-75
2023/01/03 02:45:01;;;;;;;;;1.25;1.25;;;;;-146.50;100.00;59256.41;4998738;28;45544;-76
2023/01/03 02:47:33;;;;;;;;;4.00;4.00;;;;;-146.50;100.00;59256.41;5012567;28;45481;-76
2023/01/03 02:50:03;;;;;;;;;3.00;3.00;;;;;-146.50;100.00;59256.41;4995661;28;45354;-76
2023/01/03 02:52:31;;;;;;;;;3.00;3.00;;;;;-146.50;100.00;59256.41;5012667;28;45563;-77
2023/01/03 02:55:07;;;;;;;;;8.75;6.75;;;;;-146.50;100.00;59256.41;5012833;28;46436;-76
2023/01/03 02:57:51;;;;;;;;;5.75;3.75;;;;;-146.50;100.00;59256.41;5012470;28;45741;-75
2023/01/03 03:00:21;;;;;;;;;4.75;3.75;;;;;-146.50;100.00;59256.41;5011697;28;45440;-77
2023/01/03 03:02:52;;;;;;;;;7.50;5.00;;;;;-146.50;100.00;59256.41;5046792;28;45447;-76
2023/01/03 03:05:51;;;;;;;;;9.75;6.25;;;;;-146.50;100.00;59256.41;5075069;27;47460;-76
2023/01/03 03:08:16;;;;;;;;;6.50;6.00;;;;;-146.50;100.00;59256.41;5074484;27;45374;-76
2023/01/03 03:13:47;;;;;;;;;5.25;5.25;;;;;-146.50;100.00;59256.41;5075517;28;45503;-76
2023/01/03 03:16:46;;;;;;;;;6.00;6.00;;;;;-146.50;100.00;59256.41;5074303;28;45851;-76
2023/01/03 03:24:48;;;;;;;;;7.50;5.75;;;;;-146.50;100.00;59256.41;5073692;28;45279;-77
2023/01/03 03:24:50;;;;;;;;;5.00;5.00;;;;;-146.50;100.00;59256.41;5075054;28;45743;-77
2023/01/03 03:30:09;;;;;;;;;2.25;2.25;;;;;-146.50;100.00;59256.41;5074690;28;45470;-75
2023/01/03 03:32:38;;;;;;;;;2.25;2.25;;;;;-146.50;100.00;59256.41;5074572;27;45478;-76
2023/01/03 03:35:07;;;;;;;;;6.75;3.00;;;;;-146.50;100.00;59256.41;5074750;27;45631;-76
2023/01/03 03:37:37;;;;;;;;;2.00;2.00;;;;;-146.50;100.00;59256.41;5074779;27;45456;-75
2023/01/03 03:46:11;;;;;;;;;4.75;4.75;;;;;-146.50;100.00;59256.41;5065432;28;45347;-77
2023/01/03 03:51:31;;;;;;;;;4.00;3.00;;;;;-146.50;100.00;59256.41;5074487;28;45381;-75
2023/01/03 03:54:02;;;;;;;;;5.75;4.75;;;;;-146.50;100.00;59256.41;5074812;27;45347;-75
2023/01/03 03:56:31;;;;;;;;;4.25;4.25;;;;;-146.50;100.00;59256.41;5073901;27;45703;-76
2023/01/03 03:59:01;;;;;;;;;2.50;2.50;;;;;-146.50;100.00;59256.41;5107216;27;46153;-76
2023/01/03 04:01:28;;;;;;;;;5.75;4.50;;;;;-146.50;100.00;59256.41;5074356;28;45496;-77
2023/01/03 04:04:01;;;;;;;;;3.25;2.75;;;;;-146.50;100.00;59256.41;5073748;27;45477;-76
2023/01/03 04:06:38;;;;;;;;;4.25;4.00;;;;;-146.50;100.00;59256.41;5073930;27;45371;-76
2023/01/03 04:09:03;;;;;;;;;3.50;3.50;;;;;-146.50;100.00;59256.41;5073296;28;45337;-76
2023/01/03 04:11:29;;;;;;;;;5.50;5.50;;;;;-146.50;100.00;59256.41;5086093;27;45575;-76
2023/01/03 04:13:54;;;;;;;;;1.50;1.00;;;;;-146.50;100.00;59256.41;5072295;28;45802;-76
2023/01/03 04:16:19;;;;;;;;;5.50;4.75;;;;;-146.50;100.00;59256.41;5073843;27;46034;-76
2023/01/03 04:18:45;;;;;;;;;7.00;7.00;;;;;-146.50;100.00;59256.41;5073561;27;45899;-76
2023/01/03 04:21:12;;;;;;;;;8.00;7.50;;;;;-146.50;100.00;59256.41;5074353;27;45421;-76
2023/01/03 04:23:38;;;;;;;;;5.75;4.75;;;;;-146.50;100.00;59256.41;5073813;27;45570;-76
2023/01/03 04:26:03;;;;;;;;;1.75;1.75;;;;;-146.50;100.00;59256.41;5074049;27;45455;-76
2023/01/03 04:28:28;;;;;;;;;6.50;6.00;;;;;-146.50;100.00;59256.41;5074239;27;46267;-73
2023/01/03 04:30:54;;;;;;;;;5.75;4.25;;;;;-146.50;100.00;59256.41;5091040;27;46036;-76
2023/01/03 04:33:19;;;;;;;;;4.50;4.50;;;;;-146.50;100.00;59256.41;5077652;27;45507;-77
2023/01/03 04:35:45;;;;;;;;;3.00;3.00;;;;;-146.50;100.00;59256.41;5077611;27;45455;-76
2023/01/03 04:38:10;;;;;;;;;5.75;5.75;;;;;-146.50;100.00;59256.41;5077959;27;45925;-76
2023/01/03 04:40:37;;;;;;;;;4.75;4.75;;;;;-146.50;100.00;59256.41;5077822;27;45307;-76
2023/01/03 04:45:48;;;;;;;;;4.00;4.00;;;;;-146.50;100.00;59256.41;5076871;28;45611;-76
2023/01/03 04:48:13;;;;;;;;;4.00;3.50;;;;;-146.50;100.00;59256.41;5077310;28;45431;-76
2023/01/03 04:50:39;;;;;;;;;5.00;5.00;;;;;-146.50;100.00;59256.41;5077509;28;45218;-74
2023/01/03 04:53:04;;;;;;;;;8.00;6.00;;;;;-146.50;100.00;59256.41;5077801;28;45419;-76
2023/01/03 04:55:30;;;;;;;;;4.75;4.25;;;;;-146.50;100.00;59256.41;5093131;27;45203;-76
2023/01/03 04:57:55;;;;;;;;;4.00;4.00;;;;;-146.50;100.00;59256.41;5075820;28;45498;-76
2023/01/03 05:00:20;;;;;;;;;4.75;4.75;;;;;-146.50;100.00;59256.41;5069240;28;45969;-76
2023/01/03 05:02:45;;;;;;;;;4.25;4.25;;;;;-146.50;100.00;59256.41;5077400;27;45249;-75
2023/01/03 05:05:11;;;;;;;;;4.00;4.00;;;;;-146.50;100.00;59256.41;5077516;27;45250;-77
2023/01/03 05:07:36;;;;;;;;;6.00;4.75;;;;;-146.50;100.00;59256.41;5076871;27;46315;-76
2023/01/03 05:10:02;;;;;;;;;8.25;6.00;;;;;-146.50;100.00;59256.41;5077360;27;45359;-76
2023/01/03 05:12:27;;;;;;;;;6.25;6.25;;;;;-146.50;100.00;59256.41;5076337;27;45485;-76
2023/01/03 05:14:53;;;;;;;;;4.00;3.50;;;;;-146.50;100.00;59256.41;5077146;27;45693;-75
2023/01/03 05:17:19;;;;;;;;;6.75;6.75;;;;;-146.50;100.00;59256.41;5077568;27;45807;-75
2023/01/03 05:27:58;;;;;;;;;7.00;4.00;;;;;-146.50;100.00;59256.41;5076509;28;45794;-76
2023/01/03 05:30:24;;;;;;;;;3.00;3.00;;;;;-146.50;100.00;59256.41;5069436;28;45448;-76
2023/01/03 05:32:49;;;;;;;;;5.75;5.75;;;;;-146.50;100.00;59256.41;5075959;28;45695;-76
2023/01/03 05:35:15;;;;;;;;;8.25;6.00;;;;;-146.50;100.00;59256.41;5076199;27;45334;-76
2023/01/03 05:37:40;;;;;;;;;6.75;6.75;;;;;-146.50;100.00;59256.41;5073444;28;46089;-76
2023/01/03 05:40:06;;;;;;;;;5.25;4.50;;;;;-146.50;100.00;59256.41;5076655;28;45409;-76
2023/01/03 05:42:32;;;;;;;;;7.00;3.75;;;;;-146.50;100.00;59256.41;5075607;28;45619;-76
2023/01/03 05:44:57;;;;;;;;;6.00;4.25;;;;;-146.50;100.00;59256.41;5076326;28;45405;-76
2023/01/03 05:47:22;;;;;;;;;4.25;4.25;;;;;-146.50;100.00;59256.41;5076063;27;46200;-76
2023/01/03 05:49:48;;;;;;;;;6.00;3.75;;;;;-146.50;100.00;59256.41;5076548;28;45350;-76
2023/01/03 05:52:13;;;;;;;;;5.50;4.00;;;;;-146.50;100.00;59256.41;5076350;27;45310;-76
2023/01/03 05:54:39;;;;;;;;;6.75;5.00;;;;;-146.50;100.00;59256.41;5076183;28;45355;-76
2023/01/03 05:57:04;;;;;;;;;5.75;5.00;;;;;-146.50;100.00;59256.41;5075864;27;45357;-75
2023/01/03 05:59:29;;;;;;;;;6.50;5.00;;;;;-146.50;100.00;59256.41;5076280;27;45385;-75
2023/01/03 06:01:55;;;;;;;;;5.50;5.50;;;;;-146.50;100.00;59256.41;5075964;27;45292;-74
2023/01/03 06:04:20;;;;;;;;;6.75;4.00;;;;;-146.50;100.00;59256.41;5076102;28;45317;-74
2023/01/03 06:06:46;;;;;;;;;4.25;3.75;;;;;-146.50;100.00;59256.41;5074629;28;45888;-75
2023/01/03 06:09:11;;;;;;;;;6.00;6.00;;;;;-146.50;100.00;59256.41;5076276;27;45512;-75
2023/01/03 06:11:39;;;;;;;;;8.00;5.50;;;;;-146.50;100.00;59256.41;5074143;28;45354;-75
2023/01/03 06:14:05;;;;;;;;;5.00;5.00;;;;;-146.50;100.00;59256.41;5073816;27;45369;-74
2023/01/03 06:19:14;;;;;;;;;5.75;4.50;;;;;-146.50;100.00;59256.41;5068078;28;45544;-74
2023/01/03 06:21:40;;;;;;;;;4.00;4.00;;;;;-146.50;100.00;59256.41;5075300;27;45467;-75
2023/01/03 06:24:06;;;;;;;;;4.50;4.50;;;;;-146.50;100.00;59256.41;5075634;28;45472;-75
2023/01/03 06:26:31;;;;;;;;;6.50;4.25;;;;;-146.50;100.00;59256.41;5075197;27;45630;-74
2023/01/03 06:28:58;;;;;;;;;9.75;7.50;;;;;-146.50;100.00;59256.41;5071964;27;45393;-74
2023/01/03 06:31:23;;;;;;;;;9.50;5.00;;;;;-146.50;100.00;59256.41;5074468;28;45390;-74
2023/01/03 06:33:48;;;;;;;;;3.00;3.00;;;;;-146.50;100.00;59256.41;5073186;28;45602;-75
2023/01/03 06:36:19;;;;;;;;;4.50;4.00;;;;;-146.50;100.00;59256.41;5072658;27;46100;-75
2023/01/03 06:38:45;;;;;;;;;4.00;4.00;;;;;-146.50;100.00;59256.41;5060793;27;45494;-76
2023/01/03 06:41:12;;;;;;;;;6.75;5.50;;;;;-146.50;100.00;59256.41;5070598;27;45492;-75
2023/01/03 06:43:38;;;;;;;;;11.75;11.00;;;;;-146.50;100.00;59256.41;5065184;28;45449;-75
2023/01/03 06:54:39;;;;;;;;;7.00;5.00;;;;;-146.50;100.00;59256.41;5073540;28;45560;-76
2023/01/03 06:57:05;;;;;;;;;5.00;5.00;;;;;-146.50;100.00;59256.41;5054338;28;45534;-77
2023/01/03 06:59:30;;;;;;;;;5.75;5.25;;;;;-146.50;100.00;59256.41;5037475;28;45358;-76
2023/01/03 07:01:55;;;;;;;;;4.00;4.00;;;;;-146.50;100.00;59256.41;5075086;27;45441;-78
2023/01/03 07:04:22;;;;;;;;;7.75;6.50;;;;;-146.50;100.00;59256.41;5074761;28;45372;-76
2023/01/03 07:06:48;;;;;;;;;4.25;4.25;;;;;-146.50;100.00;59256.41;5055427;28;48383;-76
2023/01/03 07:09:13;;;;;;;;;7.00;5.00;;;;;-146.50;100.00;59256.41;5054989;28;45413;-79
2023/01/03 07:11:39;;;;;;;;;4.75;3.25;;;;;-146.50;100.00;59256.41;5069592;28;45467;-78
2023/01/03 07:14:06;;;;;;;;;5.00;4.00;;;;;-146.50;100.00;59256.41;5073722;28;45458;-78
2023/01/03 07:16:37;;;;;;;;;9.00;7.50;;;;;-146.50;100.00;59256.41;5074311;27;47297;-77
2023/01/03 07:19:04;;;;;;;;;5.75;4.75;;;;;-146.50;100.00;59256.41;5074944;27;45440;-78
2023/01/03 07:21:31;;;;;;;;;4.00;4.00;;;;;-146.50;100.00;59256.41;5075017;28;45404;-77
2023/01/03 07:24:01;;;;;;;;;7.50;7.50;;;;;-146.50;100.00;59256.41;5073206;27;45410;-76
2023/01/03 07:26:29;;;;;;;;;4.75;4.75;;;;;-146.50;100.00;59256.41;5074913;27;46456;-78
2023/01/03 07:28:55;;;;;;;;;4.50;3.75;;;;;-146.50;100.00;59256.41;5074691;27;45421;-75
2023/01/03 07:31:20;;;;;;;;;8.75;8.75;;;;;-146.50;100.00;59256.41;5074685;27;45399;-76
2023/01/03 07:33:46;;;;;;;;;7.75;5.25;;;;;-146.50;100.00;59256.41;5074867;27;45413;-76
2023/01/03 07:36:14;;;;;;;;;11.00;8.50;;;;;-146.50;100.00;59256.41;5073639;28;47321;-76
2023/01/03 07:38:42;;;;;;;;;6.00;6.00;;;;;-146.50;100.00;59256.41;5074487;27;45322;-76
2023/01/03 07:41:08;;;;;;;;;5.00;5.00;;;;;-146.50;100.00;59256.41;5074081;27;45403;-77
2023/01/03 07:43:36;;;;;;;;;6.00;6.00;;;;;-146.50;100.00;59256.41;5074187;28;45548;-77
2023/01/03 07:46:20;;;;;;;;;3.50;3.50;;;;;-146.50;100.00;59256.41;5074421;27;46067;-77
2023/01/03 07:48:47;;;;;;;;;8.00;6.25;;;;;-146.50;100.00;59256.41;5074646;27;45417;-77
2023/01/03 07:51:15;;;;;;;;;3.75;3.50;;;;;-146.50;100.00;59256.41;5074887;27;45645;-77
2023/01/03 07:53:41;;;;;;;;;6.00;6.00;;;;;-146.50;100.00;59256.41;5073127;28;45529;-77
2023/01/03 07:56:18;;;;;;;;;6.50;4.75;;;;;-146.50;100.00;59256.41;5074614;27;46030;-78
2023/01/03 07:58:45;;;;;;;;;8.50;6.25;;;;;-146.50;100.00;59256.41;5072736;28;45370;-78
2023/01/03 08:01:15;;;;;;;;;7.75;7.75;;;;;-146.50;100.00;59256.41;5073643;27;45405;-77
2023/01/03 08:03:41;;;;;;;;;5.50;5.00;;;;;-146.50;100.00;59256.41;5074468;28;45355;-77
2023/01/03 08:06:15;;;;;;;;;6.00;6.00;;;;;-146.50;100.00;59256.41;5076284;28;45513;-77
2023/01/03 08:08:41;;;;;;;;;4.75;4.00;;;;;-146.50;100.00;59256.41;5078052;27;45283;-78
2023/01/03 08:13:55;;;;;;;;;10.75;8.75;;;;;-146.50;100.00;59256.41;5078008;28;45394;-78
2023/01/03 08:16:20;;;;;;;;;6.00;6.00;;;;;-146.50;100.00;59256.41;5077230;28;45453;-76
2023/01/03 08:18:45;;;;;;;;;7.50;6.75;;;;;-146.50;100.00;59256.41;5077975;27;45456;-77
2023/01/03 08:21:13;;;;;;;;;8.00;6.25;;;;;-146.50;100.00;59256.41;5110016;27;45555;-77
2023/01/03 08:23:40;;;;;;;;;9.00;4.25;;;;;-146.50;100.00;59256.41;5077555;28;45382;-78
2023/01/03 08:26:11;;;;;;;;;7.50;5.50;;;;;-146.50;100.00;59256.41;5077502;27;46360;-76
2023/01/03 08:28:37;;;;;;;;;7.25;6.25;;;;;-146.50;100.00;59256.41;5081303;27;45566;-76
2023/01/03 08:31:07;;;;;;;;;7.00;7.00;;;;;-146.50;100.00;59256.41;5079834;27;45455;-76
2023/01/03 08:33:38;;;;;;;;;5.00;5.00;;;;;-146.50;100.00;59256.41;5077637;27;45410;-76
2023/01/03 08:36:06;;;;;;;;;4.00;4.00;;;;;-146.50;100.00;59256.41;5057108;28;46194;-76
2023/01/03 08:39:00;;;;;;;;;6.00;6.00;;;;;-146.50;100.00;59256.41;5057550;28;45433;-77
2023/01/03 08:41:30;;;;;;;;;4.75;4.75;;;;;-146.50;100.00;59256.41;5037392;28;45358;-74
2023/01/03 08:43:59;;;;;;;;;5.50;5.50;;;;;-146.50;100.00;59256.41;5072676;28;45372;-73
2023/01/03 08:46:25;;;;;;;;;8.25;8.00;;;;;-146.50;100.00;59256.41;5055941;27;46405;-73
2023/01/03 08:48:51;;;;;;;;;7.50;5.75;;;;;-146.50;100.00;59256.41;5056678;28;45577;-73
2023/01/03 08:51:16;;;;;;;;;8.25;5.75;;;;;-146.50;100.00;59256.41;5054034;28;45520;-72
2023/01/03 08:53:41;;;;;;;;;5.00;5.00;;;;;-146.50;100.00;59256.41;5054812;28;45527;-73
2023/01/03 08:56:07;;;;;;;;;8.25;5.00;;;;;-146.50;100.00;59256.41;5054053;28;48001;-73
2023/01/03 08:58:32;;;;;;;;;4.50;4.50;;;;;-146.50;100.00;59256.41;5054099;28;45510;-73
2023/01/03 09:01:04;;;;;;;;;10.00;9.25;;;;;-146.50;100.00;59256.41;5054543;28;45430;-73
2023/01/03 09:03:30;;;;;;;;;6.50;6.25;;;;;-146.50;100.00;59256.41;5054572;28;45529;-73
2023/01/03 09:06:01;;;;;;;;;5.25;4.75;;;;;-146.50;100.00;59256.41;5037356;28;45488;-73
2023/01/03 09:08:30;;;;;;;;;7.75;5.75;;;;;-146.50;100.00;59256.41;5054633;28;45458;-74
2023/01/03 09:10:57;;;;;;;;;7.75;5.00;;;;;-146.50;100.00;59256.41;5054334;28;45396;-74
2023/01/03 09:13:22;;;;;;;;;5.50;3.75;;;;;-146.50;100.00;59256.41;5054088;28;45461;-73
2023/01/03 09:15:47;;;;;;;;;5.00;5.00;;;;;-146.50;100.00;59256.41;5054179;28;45729;-73
2023/01/03 09:18:13;;;;;;;;;6.50;6.50;;;;;-146.50;100.00;59256.41;5064513;28;45378;-73
2023/01/03 09:20:39;;;;;;;;;6.00;6.00;;;;;-146.50;100.00;59256.41;5076813;27;45364;-73
2023/01/03 09:23:04;;;;;;;;;8.00;6.50;;;;;-146.50;100.00;59256.41;5076753;27;45367;-73
2023/01/03 09:25:29;;;;;;;;;10.00;5.00;;;;;-146.50;100.00;59256.41;5075278;28;47270;-74
2023/01/03 09:27:55;;;;;;;;;5.00;5.00;;;;;-146.50;100.00;59256.41;5076574;27;45380;-73
2023/01/03 09:30:21;;;;;;;;;6.00;6.00;;;;;-146.50;100.00;59256.41;5077140;27;45423;-73
2023/01/03 09:32:49;;;;;;;;;8.50;5.75;;;;;-146.50;100.00;59256.41;5076651;27;45359;-73
2023/01/03 09:35:15;;;;;;;;;5.00;5.00;;;;;-146.50;100.00;59256.41;5076272;27;45326;-73
2023/01/03 09:37:40;;;;;;;;;5.00;5.00;;;;;-146.50;100.00;59256.41;5076724;27;45336;-74
2023/01/03 09:40:06;;;;;;;;;5.00;5.00;;;;;-146.50;100.00;59256.41;5075361;28;45368;-73
2023/01/03 09:45:31;;;;;;;;;4.00;4.00;;;;;-146.50;100.00;59256.41;5076171;28;45310;-73
2023/01/03 09:47:59;;;;;;;;;5.00;3.50;;;;;-146.50;100.00;59256.41;5075222;27;45549;-73
2023/01/03 09:50:28;;;;;;;;;4.75;4.75;;;;;-146.50;100.00;59256.41;5076125;27;45283;-73
2023/01/03 10:04:26;;;;;;;;;7.00;5.75;;;;;-146.50;100.00;59256.41;5076886;28;45373;-71
2023/01/03 10:07:12;;;;;;;;;8.00;4.25;;;;;-146.50;100.00;59256.41;5076985;27;46624;-75
2023/01/03 10:09:53;;;;;;;;;4.00;4.00;;;;;-146.50;100.00;59256.41;5075425;27;45535;-74
2023/01/03 10:12:42;;;;;;;;;8.00;6.00;;;;;-146.50;100.00;59256.41;5076312;27;45461;-74
2023/01/03 10:15:20;;;;;;;;;7.50;5.00;;;;;-146.50;100.00;59256.41;5075994;27;45348;-73
2023/01/03 10:18:14;;;;;;;;;3.75;2.25;;;;;-146.50;100.00;59256.41;5075666;27;46142;-73
2023/01/03 10:21:18;;;;;;;;;3.50;3.50;;;;;-146.50;100.00;59256.41;5075757;28;45378;-73
2023/01/03 10:23:47;;;;;;;;;5.00;4.00;;;;;-146.50;100.00;59256.41;5013008;28;45388;-73
2023/01/03 10:26:12;;;;;;;;;5.75;5.75;;;;;-146.50;100.00;59256.41;5013334;28;45810;-73
2023/01/03 10:28:42;;;;;;;;;6.00;4.75;;;;;-146.50;100.00;59256.41;5012906;28;46249;-73
2023/01/03 10:31:32;;;;;;;;;8.00;6.75;;;;;-146.50;100.00;59256.41;5013028;28;45489;-73
2023/01/03 10:33:57;;;;;;;;;7.00;7.00;;;;;-146.50;100.00;59256.41;5012909;28;45821;-73
2023/01/03 10:36:23;;;;;;;;;7.50;6.00;;;;;-146.50;100.00;59256.41;5013236;28;45701;-73
2023/01/03 10:39:04;;;;;;;;;3.50;3.50;;;;;-146.50;100.00;59256.41;5013010;28;45484;-73
2023/01/03 10:41:42;;;;;;;;;3.25;3.25;;;;;-146.50;100.00;59256.41;5013015;28;45441;-73
2023/01/03 10:44:29;;;;;;;;;7.75;5.00;;;;;-146.50;100.00;59256.41;5013056;28;45736;-73
2023/01/03 10:47:09;;;;;;;;;2.50;2.50;;;;;-146.50;100.00;59256.41;5012383;28;45369;-73
2023/01/03 10:49:34;;;;;;;;;4.00;4.00;;;;;-146.50;100.00;59256.41;5012659;28;47718;-73
2023/01/03 10:52:09;;;;;;;;;3.50;3.50;;;;;-146.50;100.00;59256.41;5012858;28;45483;-73
2023/01/03 10:54:46;;;;;;;;;6.75;3.00;;;;;-146.50;100.00;59256.41;5013133;28;45827;-73
2023/01/03 10:57:41;;;;;;;;;6.50;3.25;;;;;-146.50;100.00;59256.41;5012812;28;45379;-73
2023/01/03 11:00:36;;;;;;;;;5.25;4.25;;;;;-146.50;100.00;59256.41;5033742;28;45342;-72
2023/01/03 11:03:11;;;;;;;;;2.00;2.00;;;;;-146.50;100.00;59256.41;5069050;28;45537;-72
2023/01/03 11:05:37;;;;;;;;;0.00;0.00;;;;;-146.50;100.00;59256.41;5075481;27;45420;-73
2023/01/03 11:08:12;;;;;;;;;2.00;2.00;;;;;-146.50;100.00;59256.41;5074117;28;45547;-73
2023/01/03 11:10:49;;;;;;;;;1.00;1.00;;;;;-146.50;100.00;59256.41;5075002;27;45310;-72
2023/01/03 11:13:37;;;;;;;;;4.50;2.50;;;;;-146.50;100.00;59256.41;5074800;27;45366;-74
2023/01/03 11:16:11;;;;;;;;;3.00;3.00;;;;;-146.50;100.00;59256.41;5074466;28;45393;-74
2023/01/03 11:18:36;;;;;;;;;4.00;4.00;;;;;-146.50;100.00;59256.41;5074074;28;45374;-74
2023/01/03 11:21:28;;;;;;;;;6.75;4.75;;;;;-146.50;100.00;59256.41;5073530;28;48528;-74
2023/01/03 11:23:56;;;;;;;;;7.25;4.75;;;;;-146.50;100.00;59256.41;5075139;27;45487;-75
2023/01/03 11:26:40;;;;;;;;;3.00;3.00;;;;;-146.50;100.00;59256.41;5074997;27;45414;-72
2023/01/03 11:29:21;;;;;;;;;1.00;1.00;;;;;-146.50;100.00;59256.41;5074875;27;45456;-72
2023/01/03 11:32:07;;;;;;;;;3.25;3.25;;;;;-146.50;100.00;59256.41;5073333;27;46213;-73
2023/01/03 11:35:09;;;;;;;;;4.00;4.00;;;;;-146.50;100.00;59256.41;5086209;27;45434;-72
2023/01/03 11:37:49;;;;;;;;;0.00;0.00;;;;;-146.50;100.00;59256.41;5057159;27;45413;-74
2023/01/03 11:40:30;;;;;;;;;6.75;4.25;;;;;-146.50;100.00;59256.41;5093607;27;45525;-72
2023/01/03 11:43:15;;;;;;;;;2.50;2.00;;;;;-146.50;100.00;59256.41;5097327;27;47558;-73
2023/01/03 11:45:47;;;;;;;;;4.50;3.00;;;;;-146.50;100.00;59256.41;5083752;27;46541;-73
2023/01/03 11:48:51;;;;;;;;;3.00;3.00;;;;;-146.50;100.00;59256.41;5079977;27;45574;-73
2023/01/03 11:51:45;;;;;;;;;3.00;3.00;;;;;-146.50;100.00;59256.41;5079943;28;45391;-73
2023/01/03 11:54:39;;;;;;;;;3.00;3.00;;;;;-146.50;100.00;59256.41;5081317;28;45413;-73
2023/01/03 11:57:30;;;;;;;;;5.00;4.25;;;;;-146.50;100.00;59256.41;5080131;28;45386;-72
2023/01/03 12:00:08;;;;;;;;;4.50;2.00;;;;;-146.50;100.00;59256.41;5068065;27;45500;-73
2023/01/03 12:02:52;;;;;;;;;3.75;3.75;;;;;-146.50;100.00;59256.41;5072201;28;45401;-73
2023/01/03 12:05:41;;;;;;;;;4.25;2.25;;;;;-146.50;100.00;59256.41;5081009;27;45707;-73
2023/01/03 12:08:37;;;;;;;;;3.00;3.00;;;;;-146.50;100.00;59256.41;5081036;27;45629;-73
2023/01/03 12:11:08;;;;;;;;;3.00;3.00;;;;;-146.50;100.00;59256.41;5086257;27;45450;-73
2023/01/03 12:13:36;;;;;;;;;4.00;4.00;;;;;-146.50;100.00;59256.41;5077949;28;45550;-74
2023/01/03 12:16:15;;;;;;;;;2.75;2.00;;;;;-146.50;100.00;59256.41;5080765;27;46295;-73
2023/01/03 12:18:40;;;;;;;;;3.00;2.00;;;;;-146.50;100.00;59256.41;5080933;27;46646;-73
2023/01/03 12:21:20;;;;;;;;;0.67;0.67;;;;;-146.50;100.00;59256.41;5096415;27;45360;-73
2023/01/03 12:23:57;;;;;;;;;2.67;1.67;;;;;-146.50;100.00;59256.41;5080691;27;45595;-74
2023/01/03 12:26:25;;;;;;;;;2.00;1.00;;;;;-146.50;100.00;59256.41;5080373;27;45486;-74